Time;durP1;ratioP1;P1;durP2;ratioP2;P2;SDS_P1;SDS_P2;PMS_P1;PMS_P2;Temp;Humidity;BMP_temperature;BMP_pressure;BME280_temperature;BME280_humidity;BME280_pressure;Samples;Min_cycle;Max_cycle;Signal;HPM_P1;HPM_P2
2022/10/24 00:02:03;;;;;;;6.20;1.60;;;;;;;15.31;88.79;100305.03;5010925;28;100895;-30
2022/10/24 00:04:29;;;;;;;4.13;1.85;;;;;;;15.33;88.81;100312.06;5011289;28;96827;-31
2022/10/24 00:06:54;;;;;;;3.50;1.40;;;;;;;15.32;88.50;100304.00;5012738;28;102558;-31
2022/10/24 00:09:19;;;;;;;2.97;1.67;;;;;;;15.36;88.63;100314.50;5012129;28;99380;-33
2022/10/24 00:11:44;;;;;;;2.70;1.52;;;;;;;15.38;88.59;100314.38;5012540;28;98406;-30
2022/10/24 00:14:10;;;;;;;3.47;1.42;;;;;;;15.41;88.72;100314.94;5011262;28;110664;-30
2022/10/24 00:16:35;;;;;;;8.95;1.30;;;;;;;15.41;88.79;100312.22;5012279;28;96543;-31
2022/10/24 00:19:01;;;;;;;2.17;1.13;;;;;;;15.42;88.64;100293.97;5012229;28;97994;-31
2022/10/24 00:21:26;;;;;;;6.13;1.55;;;;;;;15.48;88.52;100312.53;5011773;28;107544;-30
2022/10/24 00:23:51;;;;;;;7.25;1.27;;;;;;;15.48;88.32;100296.16;5012473;28;96785;-30
2022/10/24 00:26:17;;;;;;;5.35;2.58;;;;;;;15.49;88.06;100301.47;5012279;28;106421;-30
2022/10/24 00:28:43;;;;;;;3.53;1.27;;;;;;;15.54;87.67;100301.06;5011794;28;99419;-30
2022/10/24 00:31:13;;;;;;;3.03;0.85;;;;;;;15.55;87.38;100302.78;5010652;28;100677;-30
2022/10/24 00:33:38;;;;;;;6.18;1.95;;;;;;;15.58;87.13;100307.94;5010697;28;96691;-30
2022/10/24 00:36:03;;;;;;;3.40;1.10;;;;;;;15.60;86.82;100297.75;5012219;28;96754;-30
2022/10/24 00:38:29;;;;;;;6.93;1.77;;;;;;;15.61;86.62;100301.34;5011544;28;97784;-31
2022/10/24 00:40:54;;;;;;;9.02;1.75;;;;;;;15.63;86.46;100299.34;5012051;28;97288;-30
2022/10/24 00:43:23;;;;;;;8.05;1.20;;;;;;;15.64;86.65;100301.09;5012323;28;96633;-30
2022/10/24 00:45:57;;;;;;;4.32;1.52;;;;;;;15.65;85.41;100298.19;5010536;28;96753;-30
2022/10/24 00:48:26;;;;;;;6.32;1.45;;;;;;;15.70;84.95;100304.13;5009991;28;100687;-30
2022/10/24 00:50:59;;;;;;;5.85;1.70;;;;;;;15.71;85.71;100299.56;5011521;28;100976;-32
2022/10/24 00:53:26;;;;;;;8.98;1.27;;;;;;;15.70;85.11;100293.19;5014102;28;96771;-31
2022/10/24 00:55:54;;;;;;;3.05;1.27;;;;;;;15.72;85.14;100293.06;5014404;28;96718;-31
2022/10/24 00:58:22;;;;;;;8.48;1.23;;;;;;;15.72;84.41;100282.16;5013663;28;101377;-31
2022/10/24 01:00:47;;;;;;;4.25;1.15;;;;;;;15.74;84.42;100293.78;5013906;28;100746;-30
2022/10/24 01:03:13;;;;;;;5.22;1.63;;;;;;;15.75;84.52;100297.38;5015000;28;96640;-30
2022/10/24 01:06:04;;;;;;;2.13;0.98;;;;;;;15.78;83.44;100291.63;5015269;28;96771;-30
2022/10/24 01:08:41;;;;;;;3.53;1.00;;;;;;;15.79;83.31;100290.63;5013544;28;100852;-30
2022/10/24 01:11:39;;;;;;;3.33;0.90;;;;;;;15.78;83.52;100289.78;5013769;28;101134;-30
2022/10/24 01:14:10;;;;;;;9.45;1.40;;;;;;;15.80;83.28;100286.88;5014331;28;96810;-30
2022/10/24 01:16:49;;;;;;;1.75;0.88;;;;;;;15.80;82.53;100284.16;5015290;28;96810;-32
2022/10/24 01:19:15;;;;;;;4.55;1.15;;;;;;;15.83;82.79;100284.75;5013764;28;99113;-31
2022/10/24 01:21:47;;;;;;;5.88;1.42;;;;;;;15.81;82.65;100274.97;5015520;28;97914;-30
2022/10/24 01:24:55;;;;;;;2.22;1.05;;;;;;;15.85;82.13;100270.94;5013699;28;96625;-30
2022/10/24 01:27:29;;;;;;;4.90;1.33;;;;;;;15.86;82.01;100273.53;5006179;28;96800;-30
2022/10/24 01:30:04;;;;;;;1.52;0.80;;;;;;;15.85;81.71;100268.22;5012930;28;100973;-30
2022/10/24 01:32:39;;;;;;;1.20;0.77;;;;;;;15.87;80.92;100279.84;5013487;28;101238;-31
2022/10/24 01:35:17;;;;;;;1.92;1.20;;;;;;;15.87;81.65;100261.63;5014713;28;96870;-30
2022/10/24 01:37:50;;;;;;;7.47;1.27;;;;;;;15.87;80.11;100258.00;5013346;28;96787;-30
2022/10/24 01:40:40;;;;;;;4.82;1.05;;;;;;;15.86;80.51;100250.84;5013287;28;101086;-31
2022/10/24 01:43:10;;;;;;;1.52;0.82;;;;;;;15.83;80.02;100249.25;5013279;28;101231;-31
2022/10/24 01:45:40;;;;;;;2.97;1.27;;;;;;;15.84;79.34;100253.69;5013121;28;96663;-30
2022/10/24 01:48:10;;;;;;;2.85;1.33;;;;;;;15.85;80.00;100254.53;5015030;28;96625;-30
2022/10/24 01:50:38;;;;;;;4.72;1.40;;;;;;;15.84;80.18;100252.84;5012489;28;101248;-33
2022/10/24 01:53:04;;;;;;;2.47;1.20;;;;;;;15.80;79.96;100246.81;5013111;28;100740;-31
2022/10/24 01:55:31;;;;;;;2.47;0.90;;;;;;;15.80;78.64;100252.28;5012719;28;97219;-31
2022/10/24 01:57:57;;;;;;;3.38;1.17;;;;;;;15.82;79.32;100260.31;5013158;28;96908;-31
2022/10/24 02:00:23;;;;;;;4.38;1.17;;;;;;;15.79;79.47;100258.72;5014519;28;97997;-30
2022/10/24 02:02:54;;;;;;;1.80;0.65;;;;;;;15.81;77.80;100269.53;5013473;28;97260;-30
2022/10/24 02:05:27;;;;;;;7.27;1.37;;;;;;;15.81;77.77;100261.31;5013111;28;96672;-30
2022/10/24 02:08:00;;;;;;;6.15;1.13;;;;;;;15.82;77.50;100239.31;5013015;28;96879;-30
2022/10/24 02:10:30;;;;;;;4.13;1.33;;;;;;;15.90;76.01;100253.13;5012837;28;99112;-30
2022/10/24 02:13:02;;;;;;;8.82;1.30;;;;;;;15.88;76.94;100235.16;5012966;28;100993;-30
2022/10/24 02:15:37;;;;;;;5.18;1.17;;;;;;;15.93;76.95;100254.72;5012591;28;96738;-32
2022/10/24 02:18:02;;;;;;;2.90;1.33;;;;;;;15.90;77.09;100246.81;5012872;28;98051;-31
2022/10/24 02:20:35;;;;;;;1.85;0.93;;;;;;;15.93;75.80;100247.38;5013639;28;98036;-31
2022/10/24 02:23:42;;;;;;;2.97;1.10;;;;;;;15.95;76.10;100257.31;5012604;28;100682;-30
2022/10/24 02:26:12;;;;;;;3.53;1.13;;;;;;;15.90;76.25;100241.34;5001598;28;96786;-30
2022/10/24 02:28:44;;;;;;;6.93;1.30;;;;;;;15.85;75.61;100232.69;5012628;28;96758;-30
2022/10/24 02:31:20;;;;;;;3.83;1.27;;;;;;;15.87;75.79;100247.97;5012519;28;101361;-31
2022/10/24 02:33:48;;;;;;;4.38;1.00;;;;;;;15.87;75.57;100255.28;5013737;28;99248;-30
2022/10/24 02:36:18;;;;;;;2.60;1.30;;;;;;;15.86;75.43;100245.38;5012273;28;96770;-31
2022/10/24 02:38:46;;;;;;;2.15;1.02;;;;;;;15.84;75.45;100253.69;5014508;28;96848;-32
2022/10/24 02:41:18;;;;;;;1.35;0.95;;;;;;;15.83;75.91;100245.66;5012199;28;101112;-31
2022/10/24 02:43:45;;;;;;;1.67;0.68;;;;;;;15.82;74.71;100247.50;5012293;28;100699;-33
2022/10/24 02:46:13;;;;;;;4.50;1.10;;;;;;;15.84;75.06;100234.56;5011919;28;97190;-30
2022/10/24 02:48:44;;;;;;;2.03;1.08;;;;;;;15.82;75.45;100241.19;5011567;28;97133;-30
2022/10/24 02:51:13;;;;;;;2.57;0.87;;;;;;;15.78;75.51;100242.47;5012000;28;101216;-32
2022/10/24 02:53:38;;;;;;;2.70;0.70;;;;;;;15.78;75.28;100250.66;5012166;28;101098;-31
2022/10/24 02:56:04;;;;;;;1.50;0.82;;;;;;;15.77;75.21;100248.94;5013426;28;103655;-33
2022/10/24 02:58:29;;;;;;;8.52;1.15;;;;;;;15.74;74.95;100252.84;5013503;28;96799;-31
2022/10/24 03:00:54;;;;;;;3.30;1.02;;;;;;;15.74;75.33;100243.78;5012848;28;112936;-30
2022/10/24 03:03:21;;;;;;;1.50;0.80;;;;;;;15.74;75.38;100257.44;5013114;28;115261;-30
2022/10/24 03:05:47;;;;;;;4.15;0.75;;;;;;;15.72;75.17;100233.00;5013281;28;96624;-30
2022/10/24 03:08:12;;;;;;;3.40;1.10;;;;;;;15.71;75.47;100237.59;5013824;28;96911;-31
2022/10/24 03:10:38;;;;;;;2.47;0.82;;;;;;;15.69;75.00;100228.66;5011391;28;100871;-31
2022/10/24 03:13:03;;;;;;;5.72;0.98;;;;;;;15.68;74.42;100226.06;5013075;28;97348;-30
2022/10/24 03:15:29;;;;;;;0.98;0.43;;;;;;;15.68;75.00;100217.84;5013138;28;96499;-32
2022/10/24 03:17:54;;;;;;;7.22;0.77;;;;;;;15.66;73.54;100244.44;5013020;28;96884;-30
2022/10/24 03:20:19;;;;;;;3.30;0.57;;;;;;;15.64;74.05;100227.38;5012710;28;112972;-30
2022/10/24 03:22:45;;;;;;;1.50;0.85;;;;;;;15.64;72.67;100230.09;5012707;28;111946;-31
2022/10/24 03:25:10;;;;;;;4.45;0.90;;;;;;;15.66;74.23;100238.97;5013301;28;96772;-32
2022/10/24 03:27:36;;;;;;;2.22;0.50;;;;;;;15.63;73.85;100229.22;5012183;28;96724;-32
2022/10/24 03:30:02;;;;;;;1.75;0.60;;;;;;;15.59;73.49;100230.53;5011434;28;101072;-30
2022/10/24 03:32:28;;;;;;;1.95;0.38;;;;;;;15.60;73.53;100237.69;5012319;28;99866;-30
2022/10/24 03:34:53;;;;;;;3.08;0.70;;;;;;;15.63;73.69;100244.72;5012446;28;96844;-30
2022/10/24 03:37:18;;;;;;;2.95;0.70;;;;;;;15.62;72.52;100243.88;5013027;28;98614;-31
2022/10/24 03:39:44;;;;;;;2.38;0.55;;;;;;;15.62;72.77;100243.03;5012554;28;98882;-31
2022/10/24 03:42:09;;;;;;;6.90;0.50;;;;;;;15.64;72.83;100241.88;5012862;28;97847;-31
2022/10/24 03:44:35;;;;;;;0.75;0.28;;;;;;;15.63;72.85;100222.88;5013061;28;96777;-30
2022/10/24 03:47:00;;;;;;;3.53;0.60;;;;;;;15.65;72.92;100238.13;5012530;28;97041;-31
2022/10/24 03:49:26;;;;;;;4.72;0.60;;;;;;;15.63;72.83;100229.22;5011821;28;97411;-30
2022/10/24 03:51:51;;;;;;;4.35;0.82;;;;;;;15.63;72.32;100234.66;5013060;28;97859;-33
2022/10/24 03:54:16;;;;;;;3.10;0.70;;;;;;;15.63;72.31;100229.22;5012116;28;110397;-31
2022/10/24 03:56:43;;;;;;;1.65;0.40;;;;;;;15.65;71.34;100218.16;5012570;28;96826;-31
2022/10/24 03:59:08;;;;;;;1.42;0.28;;;;;;;15.66;71.53;100234.41;5010683;28;100998;-31
2022/10/24 04:01:34;;;;;;;4.47;0.63;;;;;;;15.67;71.48;100229.81;5012370;28;97840;-30
2022/10/24 04:03:59;;;;;;;4.53;0.40;;;;;;;15.65;72.65;100227.19;5013024;28;96602;-32
2022/10/24 04:06:24;;;;;;;0.88;0.22;;;;;;;15.64;72.20;100230.94;5011910;28;112835;-31
2022/10/24 04:08:49;;;;;;;4.50;0.70;;;;;;;15.66;72.39;100225.31;5012261;28;102446;-31
2022/10/24 04:11:15;;;;;;;1.65;0.35;;;;;;;15.65;72.45;100215.44;5011837;28;115621;-30
2022/10/24 04:13:40;;;;;;;5.20;0.40;;;;;;;15.66;72.56;100218.03;5012105;28;106835;-30
2022/10/24 04:16:06;;;;;;;12.43;1.33;;;;;;;15.69;72.13;100222.34;5012055;28;96868;-30
2022/10/24 04:18:32;;;;;;;0.95;0.20;;;;;;;15.71;72.66;100206.72;5010916;28;102534;-30
2022/10/24 04:20:57;;;;;;;1.63;0.28;;;;;;;15.69;72.66;100223.19;5012340;28;97956;-31
2022/10/24 04:23:22;;;;;;;2.33;0.40;;;;;;;15.73;72.78;100220.19;5012020;28;96636;-30
2022/10/24 04:25:49;;;;;;;4.93;0.50;;;;;;;15.75;72.39;100223.66;5011545;28;96557;-31
2022/10/24 04:28:14;;;;;;;4.45;0.52;;;;;;;15.75;72.13;100210.00;5011966;28;99052;-29
2022/10/24 04:30:39;;;;;;;1.00;0.15;;;;;;;15.77;71.65;100211.56;5012119;28;96749;-31
2022/10/24 04:33:05;;;;;;;2.72;0.43;;;;;;;15.79;71.87;100215.03;5012311;28;96456;-31
2022/10/24 04:35:30;;;;;;;8.60;0.63;;;;;;;15.82;71.94;100213.88;5012260;28;96819;-30
2022/10/24 04:37:55;;;;;;;7.53;0.65;;;;;;;15.83;71.38;100212.88;5010736;28;97963;-30
2022/10/24 04:40:20;;;;;;;2.17;0.35;;;;;;;15.83;72.01;100196.50;5011864;28;114804;-31
2022/10/24 04:42:46;;;;;;;5.38;0.57;;;;;;;15.86;71.62;100218.06;5011786;28;96626;-30
2022/10/24 04:45:11;;;;;;;1.75;0.28;;;;;;;15.84;70.99;100220.06;5011378;28;110733;-31
2022/10/24 04:47:37;;;;;;;1.42;0.20;;;;;;;15.87;70.96;100225.22;5011353;28;97511;-30
2022/10/24 04:50:03;;;;;;;4.88;0.55;;;;;;;15.84;72.06;100217.34;5011516;28;97791;-32
2022/10/24 04:52:28;;;;;;;7.18;0.73;;;;;;;15.82;72.24;100217.47;5010501;28;96723;-33
2022/10/24 04:54:54;;;;;;;5.43;0.63;;;;;;;15.83;72.02;100218.34;5011750;28;96874;-33
2022/10/24 04:57:20;;;;;;;0.45;0.20;;;;;;;15.84;71.70;100211.88;5011740;28;97373;-30
2022/10/24 04:59:45;;;;;;;5.70;0.32;;;;;;;15.82;71.26;100222.06;5011318;28;112119;-30
2022/10/24 05:02:10;;;;;;;2.63;0.70;;;;;;;15.83;71.21;100224.66;5011511;28;105356;-30
2022/10/24 05:04:35;;;;;;;5.57;0.57;;;;;;;15.83;72.10;100215.63;5011767;28;107488;-30
2022/10/24 05:07:01;;;;;;;5.32;0.50;;;;;;;15.84;71.69;100218.19;5011787;28;97896;-30
2022/10/24 05:09:26;;;;;;;0.98;0.20;;;;;;;15.87;71.44;100226.13;5011714;28;97723;-30
2022/10/24 05:11:55;;;;;;;1.48;0.17;;;;;;;15.85;71.59;100225.41;5010582;28;117621;-30
2022/10/24 05:14:21;;;;;;;3.00;0.22;;;;;;;15.88;71.83;100226.97;5011496;28;96767;-30
2022/10/24 05:16:48;;;;;;;2.70;0.35;;;;;;;15.84;71.58;100223.66;5010236;28;100713;-31
2022/10/24 05:19:14;;;;;;;4.18;0.47;;;;;;;15.83;71.71;100224.66;5011370;28;99246;-30
2022/10/24 05:21:39;;;;;;;1.42;0.20;;;;;;;15.80;71.78;100211.31;5010297;28;96509;-31
2022/10/24 05:24:05;;;;;;;3.60;0.32;;;;;;;15.79;72.30;100216.91;5011360;28;96367;-33
2022/10/24 05:26:30;;;;;;;1.33;0.30;;;;;;;15.77;72.26;100225.22;5011289;28;99042;-30
2022/10/24 05:28:55;;;;;;;1.33;0.47;;;;;;;15.75;72.55;100223.66;5011052;28;107503;-30
2022/10/24 05:31:21;;;;;;;0.52;0.40;;;;;;;15.71;72.53;100223.09;5011617;28;96487;-31
2022/10/24 05:33:46;;;;;;;3.40;0.50;;;;;;;15.71;72.48;100231.28;5011567;28;96915;-30
2022/10/24 05:36:11;;;;;;;2.60;0.70;;;;;;;15.72;72.87;100233.00;5010297;28;120291;-30
2022/10/24 05:38:37;;;;;;;3.05;0.30;;;;;;;15.71;72.68;100226.69;5014785;28;97770;-31
2022/10/24 05:41:02;;;;;;;3.50;0.50;;;;;;;15.69;72.91;100233.25;5014284;28;112690;-30
2022/10/24 05:43:27;;;;;;;2.15;0.43;;;;;;;15.71;72.35;100231.28;5014816;28;96834;-30
2022/10/24 05:45:53;;;;;;;1.58;0.35;;;;;;;15.70;72.80;100227.66;5014126;28;109622;-31
2022/10/24 05:48:18;;;;;;;2.60;0.60;;;;;;;15.66;72.94;100234.41;5014155;28;97811;-30
2022/10/24 05:50:43;;;;;;;1.17;0.50;;;;;;;15.68;72.92;100226.06;5013151;28;96831;-30
2022/10/24 05:53:09;;;;;;;4.80;0.70;;;;;;;15.68;72.59;100226.06;5014669;28;104885;-31
2022/10/24 05:55:35;;;;;;;6.22;0.68;;;;;;;15.70;72.47;100222.22;5014217;28;98831;-30
2022/10/24 05:58:01;;;;;;;4.00;0.43;;;;;;;15.73;72.86;100220.19;5014233;28;99279;-31
2022/10/24 06:00:26;;;;;;;2.60;0.60;;;;;;;15.74;72.83;100236.44;5013908;28;96640;-30
2022/10/24 06:02:51;;;;;;;2.90;0.50;;;;;;;15.74;72.94;100235.59;5014570;28;96805;-32
2022/10/24 06:05:18;;;;;;;10.52;0.73;;;;;;;15.69;72.64;100239.56;5014230;28;103672;-32
2022/10/24 06:07:43;;;;;;;3.65;0.40;;;;;;;15.70;72.77;100230.41;5012809;28;100779;-31
2022/10/24 06:10:11;;;;;;;6.55;0.65;;;;;;;15.67;72.67;100241.59;5012887;28;96694;-30
2022/10/24 06:12:37;;;;;;;3.25;0.57;;;;;;;15.68;72.99;100245.16;5012920;28;96824;-32
2022/10/24 06:15:06;;;;;;;0.82;0.28;;;;;;;15.64;72.62;100255.53;5012025;28;100713;-31
2022/10/24 06:17:31;;;;;;;4.55;0.68;;;;;;;15.66;72.93;100261.72;5013056;28;100785;-31
2022/10/24 06:19:56;;;;;;;1.23;0.52;;;;;;;15.63;72.59;100258.38;5014249;28;96472;-30
2022/10/24 06:22:24;;;;;;;1.85;0.22;;;;;;;15.64;73.00;100266.44;5013386;28;109007;-31
2022/10/24 06:24:50;;;;;;;3.05;0.47;;;;;;;15.64;73.12;100269.19;5013314;28;99341;-31
2022/10/24 06:27:16;;;;;;;3.38;0.65;;;;;;;15.62;73.26;100256.69;5012331;28;100877;-30
2022/10/24 06:29:41;;;;;;;1.70;0.35;;;;;;;15.63;72.82;100261.97;5012509;28;96587;-31
2022/10/24 06:32:07;;;;;;;1.73;0.32;;;;;;;15.65;73.25;100272.75;5014075;28;96801;-30
2022/10/24 06:34:32;;;;;;;3.25;0.50;;;;;;;15.64;73.05;100274.63;5013820;28;97370;-30
2022/10/24 06:36:58;;;;;;;6.47;0.73;;;;;;;15.63;73.16;100272.88;5013946;28;97805;-30
2022/10/24 06:39:23;;;;;;;2.55;0.85;;;;;;;15.65;72.99;100276.34;5013814;28;96537;-31
2022/10/24 06:41:48;;;;;;;1.52;0.35;;;;;;;15.62;73.12;100284.84;5014283;28;96746;-31
2022/10/24 06:44:14;;;;;;;1.20;0.28;;;;;;;15.66;72.79;100297.22;5012857;28;115171;-30
2022/10/24 06:46:39;;;;;;;2.35;0.50;;;;;;;15.68;73.11;100295.19;5013558;28;99201;-31
2022/10/24 06:49:05;;;;;;;6.32;0.70;;;;;;;15.67;73.33;100303.53;5012145;28;96813;-32
2022/10/24 06:51:31;;;;;;;3.30;0.70;;;;;;;15.68;73.10;100300.66;5013288;28;96861;-30
2022/10/24 06:53:57;;;;;;;2.25;0.47;;;;;;;15.67;73.13;100311.72;5013633;28;97379;-32
2022/10/24 06:56:22;;;;;;;3.63;0.70;;;;;;;15.68;73.59;100313.44;5012022;28;100782;-30
2022/10/24 06:58:48;;;;;;;3.58;0.45;;;;;;;15.67;73.64;100322.63;5013340;28;97924;-31
2022/10/24 07:01:19;;;;;;;4.72;0.60;;;;;;;15.65;73.33;100319.19;5013537;28;96833;-32
2022/10/24 07:03:44;;;;;;;2.40;0.63;;;;;;;15.66;73.35;100327.25;5011936;28;101019;-30
2022/10/24 07:06:22;;;;;;;2.53;0.40;;;;;;;15.66;73.30;100335.44;5013775;28;97293;-30
2022/10/24 07:08:49;;;;;;;0.80;0.20;;;;;;;15.67;73.77;100341.75;5012057;28;96746;-30
2022/10/24 07:11:14;;;;;;;2.92;0.75;;;;;;;15.65;73.87;100333.69;5011681;28;97832;-31
2022/10/24 07:13:40;;;;;;;4.15;0.55;;;;;;;15.64;73.66;100348.34;5012907;28;97994;-32
2022/10/24 07:16:06;;;;;;;4.85;0.63;;;;;;;15.65;74.00;100357.41;5013135;28;102203;-31
2022/10/24 07:18:31;;;;;;;2.22;0.35;;;;;;;15.66;74.05;100360.00;5011786;28;97498;-30
2022/10/24 07:21:05;;;;;;;0.45;0.30;;;;;;;15.63;73.75;100348.47;5013493;28;96794;-32
2022/10/24 07:23:32;;;;;;;4.75;0.82;;;;;;;15.64;74.03;100366.63;5011431;28;98968;-30
2022/10/24 07:26:06;;;;;;;2.85;0.68;;;;;;;15.62;74.22;100366.75;5011519;28;101038;-31
2022/10/24 07:28:32;;;;;;;4.55;0.95;;;;;;;15.67;74.37;100382.72;5013419;28;96778;-31
2022/10/24 07:30:57;;;;;;;4.40;0.73;;;;;;;15.67;74.09;100383.56;5012021;28;96866;-30
2022/10/24 07:33:23;;;;;;;2.33;0.57;;;;;;;15.66;74.29;100381.84;5012960;28;97902;-30
2022/10/24 07:35:49;;;;;;;5.47;0.82;;;;;;;15.64;74.23;100389.31;5011528;28;102460;-30
2022/10/24 07:38:14;;;;;;;5.82;0.77;;;;;;;15.66;74.93;100389.16;5011995;28;112542;-30
2022/10/24 07:40:39;;;;;;;3.47;0.50;;;;;;;15.61;74.43;100392.31;5012969;28;96940;-30
2022/10/24 07:43:05;;;;;;;2.35;0.70;;;;;;;15.63;74.98;100414.00;5012490;28;112624;-30
2022/10/24 07:45:31;;;;;;;1.75;0.38;;;;;;;15.60;74.77;100403.38;5012767;28;99186;-30
2022/10/24 07:47:58;;;;;;;3.28;0.40;;;;;;;15.60;74.82;100414.28;5012897;28;96710;-30
2022/10/24 07:50:23;;;;;;;4.13;0.50;;;;;;;15.60;75.21;100419.75;5010978;28;96961;-32
2022/10/24 07:52:48;;;;;;;1.00;0.45;;;;;;;15.59;75.54;100413.44;5011704;28;121646;-31
2022/10/24 07:55:14;;;;;;;5.38;0.57;;;;;;;15.59;75.91;100421.63;5012597;28;104898;-30
2022/10/24 07:57:39;;;;;;;4.70;0.50;;;;;;;15.59;76.32;100426.19;5012736;28;96526;-30
2022/10/24 08:00:05;;;;;;;1.52;0.45;;;;;;;15.58;76.80;100432.69;5011059;28;110919;-32
2022/10/24 08:02:31;;;;;;;7.47;1.02;;;;;;;15.57;76.88;100440.00;5010511;28;100905;-30
2022/10/24 08:04:57;;;;;;;5.68;0.95;;;;;;;15.55;77.92;100444.72;5010994;28;101249;-32
2022/10/24 08:07:22;;;;;;;5.65;1.13;;;;;;;15.50;78.69;100447.00;5012011;28;108176;-30
2022/10/24 08:09:50;;;;;;;6.78;0.82;;;;;;;15.41;79.72;100443.22;5012499;28;96884;-31
2022/10/24 08:12:15;;;;;;;3.88;0.80;;;;;;;15.34;79.42;100469.34;5010910;28;101053;-31
2022/10/24 08:14:41;;;;;;;2.25;0.80;;;;;;;15.29;80.64;100477.91;5012009;28;97808;-31
2022/10/24 08:17:07;;;;;;;1.95;0.60;;;;;;;15.24;80.70;100473.88;5012513;28;96666;-32
2022/10/24 08:19:32;;;;;;;1.75;0.40;;;;;;;15.13;81.80;100473.94;5012924;28;96752;-31
2022/10/24 08:21:58;;;;;;;1.35;0.40;;;;;;;15.09;81.90;100487.00;5011840;28;99680;-30
2022/10/24 08:24:25;;;;;;;3.47;0.57;;;;;;;15.07;83.42;100488.97;5010763;28;100883;-30
2022/10/24 08:26:50;;;;;;;2.75;0.65;;;;;;;15.02;83.51;100475.75;5010533;28;97106;-33
2022/10/24 08:29:21;;;;;;;0.75;0.32;;;;;;;15.05;83.50;100489.09;5012466;28;96763;-31
2022/10/24 08:31:54;;;;;;;4.38;0.60;;;;;;;15.08;83.80;100493.44;5010649;28;101401;-30
2022/10/24 08:34:20;;;;;;;5.53;0.75;;;;;;;15.05;84.88;100496.44;5011866;28;99197;-30
2022/10/24 08:36:47;;;;;;;0.60;0.22;;;;;;;15.04;84.66;100498.28;5010873;28;96634;-32
2022/10/24 08:39:13;;;;;;;1.05;0.35;;;;;;;15.04;84.41;100498.28;5010834;28;96903;-30
2022/10/24 08:41:45;;;;;;;2.08;0.47;;;;;;;15.04;84.47;100490.13;5012037;28;97526;-30
2022/10/24 08:44:29;;;;;;;4.57;0.70;;;;;;;15.02;85.25;100499.44;5010921;28;100948;-30
2022/10/24 08:47:20;;;;;;;1.08;0.38;;;;;;;15.00;84.76;100509.59;5012032;28;96701;-32
2022/10/24 08:49:54;;;;;;;7.28;0.88;;;;;;;14.99;84.83;100508.75;5011466;28;96534;-30
2022/10/24 08:52:41;;;;;;;9.48;0.82;;;;;;;14.97;84.72;100515.28;5009950;28;100785;-30
2022/10/24 08:55:14;;;;;;;3.47;0.68;;;;;;;14.94;85.37;100518.28;5010478;28;101311;-30
2022/10/24 08:57:44;;;;;;;2.72;0.60;;;;;;;14.92;85.33;100528.47;5012422;28;96569;-30
2022/10/24 09:00:19;;;;;;;2.17;0.63;;;;;;;14.91;86.17;100522.16;5010496;28;96912;-32
2022/10/24 09:02:48;;;;;;;2.28;0.57;;;;;;;14.95;85.43;100530.94;5010340;28;101062;-32
2022/10/24 09:05:19;;;;;;;4.40;1.10;;;;;;;14.93;85.05;100543.84;5010237;28;100763;-30
2022/10/24 09:07:45;;;;;;;6.18;0.50;;;;;;;14.92;85.77;100547.56;5011530;28;96670;-32
2022/10/24 09:10:34;;;;;;;2.03;0.52;;;;;;;14.94;85.48;100537.38;5011888;28;96867;-30
2022/10/24 09:12:59;;;;;;;2.60;0.50;;;;;;;14.90;85.51;100541.34;5012978;28;100838;-30
2022/10/24 09:15:29;;;;;;;0.90;0.35;;;;;;;14.90;85.52;100552.28;5015124;28;100950;-32
2022/10/24 09:17:55;;;;;;;2.83;0.57;;;;;;;14.88;85.85;100555.16;5013360;28;97451;-30
2022/10/24 09:20:27;;;;;;;2.72;0.40;;;;;;;14.83;86.31;100550.06;5013447;28;97172;-30
2022/10/24 09:22:54;;;;;;;;;;;;;;;14.86;86.18;100555.25;5014080;28;101074;-30
2022/10/24 09:25:24;;;;;;;3.50;0.65;;;;;;;14.94;86.31;100560.06;5014981;28;97740;-31
2022/10/24 09:27:50;;;;;;;1.30;0.55;;;;;;;15.12;86.12;100562.25;5013722;28;96633;-32
2022/10/24 09:30:20;;;;;;;2.65;0.82;;;;;;;15.26;85.60;100561.94;5014824;28;96816;-30
2022/10/24 09:32:46;;;;;;;2.17;0.75;;;;;;;15.32;84.90;100575.03;5013246;28;100968;-31
2022/10/24 09:35:24;;;;;;;3.40;0.52;;;;;;;15.39;84.90;100578.09;5013661;28;101421;-30
2022/10/24 09:37:55;;;;;;;3.50;0.65;;;;;;;15.44;84.79;100586.75;5013535;28;98604;-30
2022/10/24 09:40:22;;;;;;;1.67;0.65;;;;;;;15.54;84.04;100574.06;5014825;28;96513;-30
2022/10/24 09:42:52;;;;;;;3.47;0.57;;;;;;;15.70;83.46;100589.97;5014131;28;98016;-31
2022/10/24 09:45:28;;;;;;;7.70;1.20;;;;;;;15.59;83.36;100585.44;5012783;28;100780;-30
2022/10/24 09:48:15;;;;;;;2.55;0.50;;;;;;;15.54;83.85;100595.91;5013203;28;96595;-30
2022/10/24 09:50:42;;;;;;;1.10;0.38;;;;;;;15.49;83.27;100598.13;5014623;28;96825;-30
2022/10/24 09:53:34;;;;;;;2.97;0.82;;;;;;;15.50;83.10;100588.97;5013053;28;101003;-31
2022/10/24 09:56:13;;;;;;;7.90;0.85;;;;;;;15.91;82.43;100603.63;5014831;28;96632;-31
2022/10/24 09:58:40;;;;;;;2.53;0.65;;;;;;;15.92;81.46;100600.78;5012971;28;96676;-32
2022/10/24 10:01:16;;;;;;;2.47;0.57;;;;;;;15.88;81.61;100601.19;5013402;28;96839;-30
2022/10/24 10:03:58;;;;;;;1.10;0.55;;;;;;;15.80;81.77;100601.84;5012974;28;101500;-31
2022/10/24 10:06:23;;;;;;;1.95;0.47;;;;;;;15.84;82.02;100616.94;5014412;28;97914;-31
2022/10/24 10:08:58;;;;;;;9.73;0.70;;;;;;;15.81;81.05;100613.63;5014375;28;96549;-30
2022/10/24 10:11:29;;;;;;;0.30;0.30;;;;;;;15.83;81.34;100612.50;5013034;28;96897;-31
2022/10/24 10:13:55;;;;;;;7.28;0.60;;;;;;;15.86;80.31;100622.28;5012806;28;101205;-31
2022/10/24 10:16:29;;;;;;;2.70;0.68;;;;;;;15.81;81.20;100630.88;5013624;28;99373;-31
2022/10/24 10:19:02;;;;;;;1.70;0.63;;;;;;;15.84;81.43;100640.69;5012898;28;96507;-31
2022/10/24 10:21:50;;;;;;;2.63;0.65;;;;;;;15.80;81.24;100644.66;5013856;28;96791;-30
2022/10/24 10:24:33;;;;;;;3.83;0.65;;;;;;;15.70;81.56;100647.34;5011653;28;101469;-31
2022/10/24 10:26:59;;;;;;;5.15;0.98;;;;;;;15.67;81.86;100651.16;5014482;28;97179;-31
2022/10/24 10:29:24;;;;;;;2.00;0.77;;;;;;;15.65;81.41;100649.56;5013835;28;96566;-31
2022/10/24 10:31:58;;;;;;;3.33;0.50;;;;;;;15.59;81.70;100659.16;5014043;28;96801;-30
2022/10/24 10:34:30;;;;;;;1.23;0.55;;;;;;;15.56;81.82;100664.88;5011995;28;101024;-30
2022/10/24 10:37:17;;;;;;;1.80;0.50;;;;;;;15.52;82.10;100674.34;5013791;28;97871;-31
2022/10/24 10:39:56;;;;;;;1.58;0.57;;;;;;;15.42;82.58;100678.81;5012550;28;96612;-31
2022/10/24 10:42:55;;;;;;;4.00;0.60;;;;;;;15.37;83.54;100673.75;5014188;28;96803;-31
2022/10/24 10:46:04;;;;;;;1.48;0.70;;;;;;;15.28;83.93;100690.94;5013612;28;98942;-30
2022/10/24 10:48:48;;;;;;;3.33;0.57;;;;;;;15.21;84.34;100697.91;4984250;28;97926;-31
2022/10/24 10:51:22;;;;;;;3.40;0.45;;;;;;;15.12;84.99;100709.56;5012008;28;96706;-31
2022/10/24 10:53:52;;;;;;;1.90;0.50;;;;;;;15.03;85.36;100698.41;5014374;28;96619;-31
2022/10/24 10:56:49;;;;;;;4.72;0.82;;;;;;;15.02;85.24;100698.56;5013138;28;98036;-30
2022/10/24 10:59:32;;;;;;;3.05;0.65;;;;;;;14.98;86.69;100705.25;5013671;28;97402;-30
2022/10/24 11:02:16;;;;;;;0.80;0.47;;;;;;;14.95;86.92;100705.50;5013291;28;96557;-31
2022/10/24 11:05:17;;;;;;;1.75;0.65;;;;;;;14.96;86.33;100701.78;5013731;28;96630;-30
2022/10/24 11:07:54;;;;;;;3.85;0.57;;;;;;;14.97;86.69;100706.22;5001840;28;97553;-30
2022/10/24 11:10:23;;;;;;;1.63;0.80;;;;;;;14.93;87.26;100705.63;5013159;28;99289;-30
2022/10/24 11:12:49;;;;;;;6.47;0.90;;;;;;;14.89;86.93;100711.47;5011833;28;96864;-31
2022/10/24 11:15:26;;;;;;;2.58;0.98;;;;;;;14.90;87.27;100710.44;5013751;28;96780;-32
2022/10/24 11:17:58;;;;;;;1.63;0.68;;;;;;;14.94;87.03;100709.22;5011866;28;101378;-31
2022/10/24 11:20:36;;;;;;;3.08;0.85;;;;;;;14.98;86.98;100697.06;5012204;28;100884;-30
2022/10/24 11:23:15;;;;;;;4.63;0.93;;;;;;;15.01;87.45;100716.75;5013706;28;96638;-33
2022/10/24 11:26:15;;;;;;;3.78;0.70;;;;;;;14.97;86.88;100714.41;5011898;28;96621;-30
2022/10/24 11:28:53;;;;;;;8.13;0.75;;;;;;;15.00;87.49;100716.91;5011311;28;101073;-32
2022/10/24 11:31:26;;;;;;;2.80;0.75;;;;;;;15.02;87.77;100721.25;5013077;28;97292;-31
2022/10/24 11:34:10;;;;;;;5.38;0.60;;;;;;;15.06;86.64;100722.72;5011660;28;96645;-31